Time;durP1;ratioP1;P1;durP2;ratioP2;P2;SDS_P1;SDS_P2;PMS_P1;PMS_P2;Temp;Humidity;BMP_temperature;BMP_pressure;BME280_temperature;BME280_humidity;BME280_pressure;Samples;Min_cycle;Max_cycle;Signal;HPM_P1;HPM_P2
2021/12/06 00:02:25;;;;;;;;;;;;;;;;;;4911891;29;873;-60
2021/12/06 00:04:51;;;;;;;;;;;;;;;;;;4910694;29;1584;-60
2021/12/06 00:07:18;;;;;;;;;;;;;;;;;;4912166;29;818;-59
2021/12/06 00:09:44;;;;;;;;;;;;;;;;;;4925651;29;1071;-60
2021/12/06 00:12:10;;;;;;;;;;;;;;;;;;4911810;29;830;-59
2021/12/06 00:14:37;;;;;;;;;;;;;;;;;;4910124;29;1729;-59
2021/12/06 00:17:07;;;;;;;;;;;;;;;;;;4911681;29;1919;-60
2021/12/06 00:19:33;;;;;;;;;;;;;;;;;;4911558;29;901;-59
2021/12/06 00:21:58;;;;;;;;;;;;;;;;;;4911590;29;894;-59
2021/12/06 00:24:24;;;;;;;;;;;;;;;;;;4911703;29;1047;-59
2021/12/06 00:26:49;;;;;;;;;;;;;;;;;;4911596;29;945;-59
2021/12/06 00:29:15;;;;;;;;;;;;;;;;;;4912072;29;1064;-59
2021/12/06 00:31:40;;;;;;;;;;;;;;;;;;4911146;29;798;-59
2021/12/06 00:34:09;;;;;;;;;;;;;;;;;;4911803;29;913;-59
2021/12/06 00:36:37;;;;;;;;;;;;;;;;;;4914705;29;1907;-59
2021/12/06 00:39:05;;;;;;;;;;;;;;;;;;4915131;29;877;-59
2021/12/06 00:41:30;;;;;;;;;;;;;;;;;;4914484;29;917;-59
2021/12/06 00:43:55;;;;;;;;;;;;;;;;;;4914918;29;874;-60
2021/12/06 00:46:21;;;;;;;;;;;;;;;;;;4915103;29;857;-59
2021/12/06 00:48:46;;;;;;;;;;;;;;;;;;4929738;29;1059;-61
2021/12/06 00:51:13;;;;;;;;;;;;;;;;;;4929748;29;1403;-59
2021/12/06 00:53:39;;;;;;;;;;;;;;;;;;4914547;29;947;-59
2021/12/06 00:56:05;;;;;;;;;;;;;;;;;;4929509;29;1899;-59
2021/12/06 00:58:30;;;;;;;;;;;;;;;;;;4915065;29;1052;-60
2021/12/06 01:00:55;;;;;;;;;;;;;;;;;;4915459;29;833;-60
2021/12/06 01:03:22;;;;;;;;;;;;;;;;;;4915375;29;830;-59
2021/12/06 01:05:48;;;;;;;;;;;;;;;;;;4914367;29;1012;-59
2021/12/06 01:08:14;;;;;;;;;;;;;;;;;;4928851;29;1190;-60
2021/12/06 01:10:42;;;;;;;;;;;;;;;;;;4928879;29;868;-59
2021/12/06 01:13:08;;;;;;;;;;;;;;;;;;4914989;29;857;-61
2021/12/06 01:15:34;;;;;;;;;;;;;;;;;;4914632;29;807;-59
2021/12/06 01:18:01;;;;;;;;;;;;;;;;;;4914742;29;1911;-59
2021/12/06 01:20:30;;;;;;;;;;;;;;;;;;4914610;29;857;-59
2021/12/06 01:23:01;;;;;;;;;;;;;;;;;;4914343;29;833;-59
2021/12/06 01:30:33;;;;;;;;;;;;;;;;;;4915073;29;849;-59
2021/12/06 01:40:54;;;;;;;;;;;;;;;;;;4914839;29;630;-59
2021/12/06 01:43:20;;;;;;;;;;;;;;;;;;4914305;29;755;-59
2021/12/06 01:45:45;;;;;;;;;;;;;;;;;;4913486;29;826;-59
2021/12/06 01:48:10;;;;;;;;;;;;;;;;;;4914462;29;877;-60
2021/12/06 01:50:35;;;;;;;;;;;;;;;;;;4913770;29;1028;-60
2021/12/06 01:53:02;;;;;;;;;;;;;;;;;;4914317;29;814;-59
2021/12/06 01:55:30;;;;;;;;;;;;;;;;;;4913984;29;929;-60
2021/12/06 01:57:56;;;;;;;;;;;;;;;;;;4914089;29;1998;-59
2021/12/06 02:00:27;;;;;;;;;;;;;;;;;;4914415;29;933;-60
2021/12/06 02:02:53;;;;;;;;;;;;;;;;;;4913957;29;912;-59
2021/12/06 02:05:18;;;;;;;;;;;;;;;;;;4913903;29;815;-59
2021/12/06 02:07:44;;;;;;;;;;;;;;;;;;4928442;29;870;-60
2021/12/06 02:10:09;;;;;;;;;;;;;;;;;;4913871;29;1427;-59
2021/12/06 02:12:35;;;;;;;;;;;;;;;;;;4913524;29;883;-60
2021/12/06 02:15:33;;;;;;;;;;;;;;;;;;4913674;29;926;-59
2021/12/06 02:17:57;;;;;;;;;;;;;;;;;;4912700;29;1974;-60
2021/12/06 02:20:27;;;;;;;;;;;;;;;;;;4914108;29;826;-60
2021/12/06 02:22:52;;;;;;;;;;;;;;;;;;4913116;29;933;-60
2021/12/06 02:25:19;;;;;;;;;;;;;;;;;;4913910;29;901;-59
2021/12/06 02:27:46;;;;;;;;;;;;;;;;;;4927561;29;916;-60
2021/12/06 02:30:12;;;;;;;;;;;;;;;;;;4913401;29;913;-59
2021/12/06 02:32:38;;;;;;;;;;;;;;;;;;4913087;28;988;-59
2021/12/06 02:35:04;;;;;;;;;;;;;;;;;;4913454;28;838;-59
2021/12/06 02:37:31;;;;;;;;;;;;;;;;;;4912809;29;1894;-59
2021/12/06 02:39:57;;;;;;;;;;;;;;;;;;4913462;29;827;-60
2021/12/06 02:42:22;;;;;;;;;;;;;;;;;;4913317;29;925;-59
2021/12/06 02:44:48;;;;;;;;;;;;;;;;;;4911575;29;977;-60
2021/12/06 02:47:15;;;;;;;;;;;;;;;;;;4911993;29;1362;-59
2021/12/06 02:49:40;;;;;;;;;;;;;;;;;;4912688;29;826;-59
2021/12/06 02:52:06;;;;;;;;;;;;;;;;;;4912825;29;825;-59
2021/12/06 02:54:32;;;;;;;;;;;;;;;;;;4912573;29;993;-60
2021/12/06 02:59:39;;;;;;;;;;;;;;;;;;4912352;29;715;-59
2021/12/06 03:02:06;;;;;;;;;;;;;;;;;;4912846;29;912;-59
2021/12/06 03:04:32;;;;;;;;;;;;;;;;;;4912794;29;1244;-59
2021/12/06 03:06:59;;;;;;;;;;;;;;;;;;4910900;29;1554;-60
2021/12/06 03:09:27;;;;;;;;;;;;;;;;;;4926962;29;1051;-59
2021/12/06 03:11:56;;;;;;;;;;;;;;;;;;4911525;29;1255;-59
2021/12/06 03:14:26;;;;;;;;;;;;;;;;;;4913006;29;952;-59
2021/12/06 03:16:53;;;;;;;;;;;;;;;;;;4912571;29;1985;-59
2021/12/06 03:19:18;;;;;;;;;;;;;;;;;;4912901;29;838;-60
2021/12/06 03:21:44;;;;;;;;;;;;;;;;;;4912536;29;982;-59
2021/12/06 03:24:09;;;;;;;;;;;;;;;;;;4911524;29;862;-59
2021/12/06 03:26:36;;;;;;;;;;;;;;;;;;4911481;29;913;-59
2021/12/06 03:29:02;;;;;;;;;;;;;;;;;;4912785;29;786;-59
2021/12/06 03:31:27;;;;;;;;;;;;;;;;;;4912649;29;834;-59
2021/12/06 03:33:54;;;;;;;;;;;;;;;;;;4912102;29;972;-60
2021/12/06 03:36:20;;;;;;;;;;;;;;;;;;4910835;29;1915;-59
2021/12/06 03:38:46;;;;;;;;;;;;;;;;;;4912413;29;1136;-59
2021/12/06 03:41:12;;;;;;;;;;;;;;;;;;4912641;29;972;-59
2021/12/06 03:43:38;;;;;;;;;;;;;;;;;;4912465;29;882;-59
2021/12/06 03:46:03;;;;;;;;;;;;;;;;;;4912717;29;956;-59
2021/12/06 03:48:29;;;;;;;;;;;;;;;;;;4912818;29;821;-59
2021/12/06 03:50:55;;;;;;;;;;;;;;;;;;4926439;29;869;-60
2021/12/06 03:53:20;;;;;;;;;;;;;;;;;;4912432;29;902;-60
2021/12/06 03:55:45;;;;;;;;;;;;;;;;;;4912133;29;1978;-59
2021/12/06 03:58:11;;;;;;;;;;;;;;;;;;4912543;29;888;-60
2021/12/06 04:00:36;;;;;;;;;;;;;;;;;;4912645;29;961;-59
2021/12/06 04:03:02;;;;;;;;;;;;;;;;;;4912150;29;838;-59
2021/12/06 04:05:28;;;;;;;;;;;;;;;;;;4912574;29;925;-59
2021/12/06 04:07:53;;;;;;;;;;;;;;;;;;4912298;29;826;-60
2021/12/06 04:10:19;;;;;;;;;;;;;;;;;;4914146;29;1458;-59
2021/12/06 04:12:44;;;;;;;;;;;;;;;;;;4929915;29;924;-60
2021/12/06 04:15:10;;;;;;;;;;;;;;;;;;4915905;29;849;-59
2021/12/06 04:17:36;;;;;;;;;;;;;;;;;;4915210;29;1956;-59
2021/12/06 04:20:03;;;;;;;;;;;;;;;;;;4915006;29;852;-59
2021/12/06 04:22:28;;;;;;;;;;;;;;;;;;4915347;29;783;-60
2021/12/06 04:24:54;;;;;;;;;;;;;;;;;;4914976;29;822;-58
2021/12/06 04:27:21;;;;;;;;;;;;;;;;;;4914984;29;924;-58
2021/12/06 04:29:49;;;;;;;;;;;;;;;;;;4914724;29;1047;-59
2021/12/06 04:32:15;;;;;;;;;;;;;;;;;;4915473;29;835;-59
2021/12/06 04:34:41;;;;;;;;;;;;;;;;;;4914961;29;1059;-59
2021/12/06 04:37:07;;;;;;;;;;;;;;;;;;4914003;29;1963;-59
2021/12/06 04:39:32;;;;;;;;;;;;;;;;;;4914819;29;909;-59
2021/12/06 04:41:57;;;;;;;;;;;;;;;;;;4915008;29;806;-59
2021/12/06 04:44:23;;;;;;;;;;;;;;;;;;4915059;29;834;-59
2021/12/06 04:46:48;;;;;;;;;;;;;;;;;;4914693;29;830;-59
2021/12/06 04:49:14;;;;;;;;;;;;;;;;;;4915692;29;818;-59
2021/12/06 04:51:41;;;;;;;;;;;;;;;;;;4915169;29;925;-60
2021/12/06 04:54:07;;;;;;;;;;;;;;;;;;4915016;29;1007;-60
2021/12/06 04:56:38;;;;;;;;;;;;;;;;;;4914565;29;1911;-59
2021/12/06 04:59:15;;;;;;;;;;;;;;;;;;4914336;29;1594;-61
2021/12/06 05:01:41;;;;;;;;;;;;;;;;;;4914221;29;955;-60
2021/12/06 05:04:09;;;;;;;;;;;;;;;;;;4914564;29;739;-60
2021/12/06 05:06:36;;;;;;;;;;;;;;;;;;4929237;29;885;-60
2021/12/06 05:09:06;;;;;;;;;;;;;;;;;;4914411;29;1284;-60
2021/12/06 05:11:31;;;;;;;;;;;;;;;;;;4914986;29;968;-59
2021/12/06 05:13:58;;;;;;;;;;;;;;;;;;4914276;28;814;-60
2021/12/06 05:16:23;;;;;;;;;;;;;;;;;;4912752;29;1898;-60
2021/12/06 05:18:49;;;;;;;;;;;;;;;;;;4914144;29;896;-60
2021/12/06 05:21:14;;;;;;;;;;;;;;;;;;4913517;29;770;-60
2021/12/06 05:23:39;;;;;;;;;;;;;;;;;;4914135;29;898;-60
2021/12/06 05:26:05;;;;;;;;;;;;;;;;;;4914396;29;1000;-60
2021/12/06 05:28:33;;;;;;;;;;;;;;;;;;4914594;28;794;-60
2021/12/06 05:30:59;;;;;;;;;;;;;;;;;;4914471;29;892;-60
2021/12/06 05:33:31;;;;;;;;;;;;;;;;;;4914213;29;1060;-60
2021/12/06 05:36:01;;;;;;;;;;;;;;;;;;4914050;29;1919;-60
2021/12/06 05:38:27;;;;;;;;;;;;;;;;;;4914238;29;1582;-60
2021/12/06 05:40:53;;;;;;;;;;;;;;;;;;4914036;29;952;-60
2021/12/06 05:43:18;;;;;;;;;;;;;;;;;;4914204;29;941;-60
2021/12/06 05:45:44;;;;;;;;;;;;;;;;;;4914316;29;931;-60
2021/12/06 05:48:09;;;;;;;;;;;;;;;;;;4914202;28;861;-62
2021/12/06 05:50:34;;;;;;;;;;;;;;;;;;4914109;29;865;-60
2021/12/06 05:53:00;;;;;;;;;;;;;;;;;;4914031;29;889;-60
2021/12/06 05:55:27;;;;;;;;;;;;;;;;;;4913644;29;1153;-60
2021/12/06 05:57:53;;;;;;;;;;;;;;;;;;4902559;29;1935;-60
2021/12/06 06:00:21;;;;;;;;;;;;;;;;;;4895360;28;624;-60
2021/12/06 06:02:46;;;;;;;;;;;;;;;;;;4894941;28;917;-60
2021/12/06 06:05:12;;;;;;;;;;;;;;;;;;4895099;29;802;-60
2021/12/06 06:07:37;;;;;;;;;;;;;;;;;;4895108;28;906;-60
2021/12/06 06:10:03;;;;;;;;;;;;;;;;;;4894525;29;1123;-60
2021/12/06 06:12:28;;;;;;;;;;;;;;;;;;4895115;28;799;-60
2021/12/06 06:14:54;;;;;;;;;;;;;;;;;;4894703;29;870;-60
2021/12/06 06:17:20;;;;;;;;;;;;;;;;;;4894603;29;1960;-60
2021/12/06 06:19:47;;;;;;;;;;;;;;;;;;4894505;28;840;-60
2021/12/06 06:22:13;;;;;;;;;;;;;;;;;;4894293;28;1801;-60
2021/12/06 06:24:38;;;;;;;;;;;;;;;;;;4894299;28;885;-60
2021/12/06 06:27:03;;;;;;;;;;;;;;;;;;4893952;29;900;-60
2021/12/06 06:29:29;;;;;;;;;;;;;;;;;;4894325;28;831;-60
2021/12/06 06:31:55;;;;;;;;;;;;;;;;;;4893894;29;881;-59
2021/12/06 06:34:21;;;;;;;;;;;;;;;;;;4894343;28;810;-60
2021/12/06 06:36:46;;;;;;;;;;;;;;;;;;4893766;28;1898;-60
2021/12/06 06:39:11;;;;;;;;;;;;;;;;;;4894471;29;814;-60
2021/12/06 06:41:37;;;;;;;;;;;;;;;;;;4894979;28;854;-60
2021/12/06 06:44:03;;;;;;;;;;;;;;;;;;4894406;28;827;-60
2021/12/06 06:46:28;;;;;;;;;;;;;;;;;;4894347;29;767;-60
2021/12/06 06:48:56;;;;;;;;;;;;;;;;;;4894320;28;849;-60
2021/12/06 06:51:21;;;;;;;;;;;;;;;;;;4894895;29;837;-60
2021/12/06 06:53:47;;;;;;;;;;;;;;;;;;4894128;28;873;-60
2021/12/06 06:56:12;;;;;;;;;;;;;;;;;;4894470;28;1907;-60
2021/12/06 06:58:37;;;;;;;;;;;;;;;;;;4894657;28;956;-60
2021/12/06 07:01:03;;;;;;;;;;;;;;;;;;4893886;29;992;-60
2021/12/06 07:03:31;;;;;;;;;;;;;;;;;;4893754;29;849;-59
2021/12/06 07:05:57;;;;;;;;;;;;;;;;;;4893537;28;897;-60
2021/12/06 07:08:22;;;;;;;;;;;;;;;;;;4893963;28;1083;-60
2021/12/06 07:10:50;;;;;;;;;;;;;;;;;;4893675;28;850;-60
2021/12/06 07:13:16;;;;;;;;;;;;;;;;;;4893852;28;869;-59
2021/12/06 07:15:41;;;;;;;;;;;;;;;;;;4893709;28;791;-59
2021/12/06 07:18:06;;;;;;;;;;;;;;;;;;4893406;28;1957;-59
2021/12/06 07:20:32;;;;;;;;;;;;;;;;;;4893753;28;810;-59
2021/12/06 07:22:58;;;;;;;;;;;;;;;;;;4893226;28;877;-58
2021/12/06 07:25:23;;;;;;;;;;;;;;;;;;4892151;28;1232;-60
2021/12/06 07:27:49;;;;;;;;;;;;;;;;;;4893824;28;893;-59
2021/12/06 07:30:15;;;;;;;;;;;;;;;;;;4893526;29;818;-59
2021/12/06 07:32:41;;;;;;;;;;;;;;;;;;4894175;28;855;-59
2021/12/06 07:35:07;;;;;;;;;;;;;;;;;;4893530;29;997;-59
2021/12/06 07:37:33;;;;;;;;;;;;;;;;;;4893927;28;1899;-58
2021/12/06 07:39:58;;;;;;;;;;;;;;;;;;4893507;28;845;-60
2021/12/06 07:42:23;;;;;;;;;;;;;;;;;;4894051;29;763;-59
2021/12/06 07:44:50;;;;;;;;;;;;;;;;;;4892853;28;889;-59
2021/12/06 07:47:16;;;;;;;;;;;;;;;;;;4894139;28;869;-59
2021/12/06 07:49:45;;;;;;;;;;;;;;;;;;4892336;28;921;-60
2021/12/06 07:52:10;;;;;;;;;;;;;;;;;;4893692;28;901;-59
2021/12/06 07:54:36;;;;;;;;;;;;;;;;;;4893315;28;1057;-59
2021/12/06 07:57:02;;;;;;;;;;;;;;;;;;4893169;29;1899;-59
2021/12/06 07:59:27;;;;;;;;;;;;;;;;;;4893893;28;1112;-59
2021/12/06 08:01:53;;;;;;;;;;;;;;;;;;4893840;28;783;-59
2021/12/06 08:04:18;;;;;;;;;;;;;;;;;;4893700;29;842;-59
2021/12/06 08:06:44;;;;;;;;;;;;;;;;;;4908550;28;834;-59
2021/12/06 08:09:09;;;;;;;;;;;;;;;;;;4893199;28;1072;-59
2021/12/06 08:11:35;;;;;;;;;;;;;;;;;;4894408;28;846;-60
2021/12/06 08:14:00;;;;;;;;;;;;;;;;;;4893315;29;790;-59
2021/12/06 08:16:27;;;;;;;;;;;;;;;;;;4893731;29;1907;-59
2021/12/06 08:18:53;;;;;;;;;;;;;;;;;;4893426;29;901;-60
2021/12/06 08:21:19;;;;;;;;;;;;;;;;;;4893744;29;907;-59
2021/12/06 08:23:45;;;;;;;;;;;;;;;;;;4893782;28;881;-60
2021/12/06 08:26:11;;;;;;;;;;;;;;;;;;4907914;29;826;-60
2021/12/06 08:28:36;;;;;;;;;;;;;;;;;;4892994;28;791;-60
2021/12/06 08:31:03;;;;;;;;;;;;;;;;;;4893017;28;819;-60
2021/12/06 08:33:29;;;;;;;;;;;;;;;;;;4892961;28;822;-60
2021/12/06 08:35:55;;;;;;;;;;;;;;;;;;4892818;29;960;-60
2021/12/06 08:38:24;;;;;;;;;;;;;;;;;;4892460;28;884;-60
2021/12/06 08:40:49;;;;;;;;;;;;;;;;;;4892876;28;838;-60
2021/12/06 08:43:19;;;;;;;;;;;;;;;;;;4892998;28;972;-60
2021/12/06 08:45:47;;;;;;;;;;;;;;;;;;4905087;28;1213;-60
2021/12/06 08:48:12;;;;;;;;;;;;;;;;;;4902579;28;1074;-60
2021/12/06 08:50:38;;;;;;;;;;;;;;;;;;4901220;29;1107;-60
2021/12/06 08:53:03;;;;;;;;;;;;;;;;;;4892463;28;893;-59
2021/12/06 08:55:29;;;;;;;;;;;;;;;;;;4893190;29;1015;-59
2021/12/06 08:57:55;;;;;;;;;;;;;;;;;;4895445;28;1964;-59
2021/12/06 09:00:23;;;;;;;;;;;;;;;;;;4895447;29;885;-59
2021/12/06 09:02:49;;;;;;;;;;;;;;;;;;4895739;29;798;-60
2021/12/06 09:05:14;;;;;;;;;;;;;;;;;;4895612;29;842;-60
2021/12/06 09:07:40;;;;;;;;;;;;;;;;;;4894904;28;951;-60
2021/12/06 09:10:06;;;;;;;;;;;;;;;;;;4894455;28;1120;-60
2021/12/06 09:12:31;;;;;;;;;;;;;;;;;;4895466;29;941;-60
2021/12/06 09:14:59;;;;;;;;;;;;;;;;;;4895614;28;814;-60
2021/12/06 09:17:24;;;;;;;;;;;;;;;;;;4895500;28;1914;-60
2021/12/06 09:19:50;;;;;;;;;;;;;;;;;;4895271;28;1071;-60
2021/12/06 09:22:16;;;;;;;;;;;;;;;;;;4895498;29;799;-60
2021/12/06 09:24:42;;;;;;;;;;;;;;;;;;4895566;29;881;-60
2021/12/06 09:27:07;;;;;;;;;;;;;;;;;;4894856;28;1017;-60
2021/12/06 09:29:36;;;;;;;;;;;;;;;;;;4895644;28;640;-59
2021/12/06 09:32:04;;;;;;;;;;;;;;;;;;4895306;28;873;-59
2021/12/06 09:34:31;;;;;;;;;;;;;;;;;;4894971;29;1136;-60
2021/12/06 09:36:57;;;;;;;;;;;;;;;;;;4894788;28;1964;-60
2021/12/06 09:39:23;;;;;;;;;;;;;;;;;;4895193;28;937;-60
2021/12/06 09:41:48;;;;;;;;;;;;;;;;;;4894886;28;822;-60
2021/12/06 09:44:14;;;;;;;;;;;;;;;;;;4895724;29;862;-60
2021/12/06 09:46:40;;;;;;;;;;;;;;;;;;4895533;28;847;-60
2021/12/06 09:49:08;;;;;;;;;;;;;;;;;;4895579;28;900;-60
2021/12/06 09:51:35;;;;;;;;;;;;;;;;;;4895940;28;901;-60
2021/12/06 09:54:00;;;;;;;;;;;;;;;;;;4895385;28;903;-60
2021/12/06 09:56:34;;;;;;;;;;;;;;;;;;4895073;28;1964;-60
2021/12/06 09:59:00;;;;;;;;;;;;;;;;;;4895658;28;889;-60
2021/12/06 10:01:27;;;;;;;;;;;;;;;;;;4895788;29;826;-60
2021/12/06 10:03:54;;;;;;;;;;;;;;;;;;4895244;29;858;-60
2021/12/06 10:06:20;;;;;;;;;;;;;;;;;;4895679;28;822;-60
2021/12/06 10:08:46;;;;;;;;;;;;;;;;;;4894322;28;1313;-60
2021/12/06 10:11:13;;;;;;;;;;;;;;;;;;4895459;29;814;-60
2021/12/06 10:13:39;;;;;;;;;;;;;;;;;;4894954;28;798;-60
2021/12/06 10:16:05;;;;;;;;;;;;;;;;;;4894538;28;1970;-60
2021/12/06 10:18:30;;;;;;;;;;;;;;;;;;4894698;29;739;-60
2021/12/06 10:20:56;;;;;;;;;;;;;;;;;;4894473;28;878;-60
2021/12/06 10:23:21;;;;;;;;;;;;;;;;;;4894685;28;838;-61
2021/12/06 10:25:49;;;;;;;;;;;;;;;;;;4909524;28;936;-60
2021/12/06 10:28:15;;;;;;;;;;;;;;;;;;4894339;28;1144;-60
2021/12/06 10:30:42;;;;;;;;;;;;;;;;;;4894359;28;797;-60
2021/12/06 10:33:10;;;;;;;;;;;;;;;;;;4893960;28;866;-60
2021/12/06 10:35:39;;;;;;;;;;;;;;;;;;4895142;28;1015;-60
2021/12/06 10:38:05;;;;;;;;;;;;;;;;;;4894006;28;1887;-60
2021/12/06 10:40:32;;;;;;;;;;;;;;;;;;4893917;29;821;-59
2021/12/06 10:43:00;;;;;;;;;;;;;;;;;;4893869;28;890;-59
2021/12/06 10:45:36;;;;;;;;;;;;;;;;;;4892564;29;1208;-59
2021/12/06 10:48:12;;;;;;;;;;;;;;;;;;4893638;29;893;-60
2021/12/06 10:50:39;;;;;;;;;;;;;;;;;;4894222;28;810;-59
2021/12/06 10:53:05;;;;;;;;;;;;;;;;;;4892369;28;1214;-59
2021/12/06 10:55:32;;;;;;;;;;;;;;;;;;4893996;28;1013;-59
2021/12/06 10:57:59;;;;;;;;;;;;;;;;;;4893829;28;1976;-59
2021/12/06 11:00:27;;;;;;;;;;;;;;;;;;4893623;28;886;-59
2021/12/06 11:02:52;;;;;;;;;;;;;;;;;;4893605;29;1055;-59
2021/12/06 11:05:22;;;;;;;;;;;;;;;;;;4894040;29;795;-59
2021/12/06 11:07:47;;;;;;;;;;;;;;;;;;4893628;29;850;-59
2021/12/06 11:10:12;;;;;;;;;;;;;;;;;;4907727;28;1091;-59
2021/12/06 11:12:38;;;;;;;;;;;;;;;;;;4893604;29;894;-59
2021/12/06 11:15:11;;;;;;;;;;;;;;;;;;4907899;28;921;-59
2021/12/06 11:17:37;;;;;;;;;;;;;;;;;;4893375;28;1964;-59
2021/12/06 11:20:03;;;;;;;;;;;;;;;;;;4892691;28;782;-60
2021/12/06 11:22:29;;;;;;;;;;;;;;;;;;4895454;28;874;-59
2021/12/06 11:24:55;;;;;;;;;;;;;;;;;;4895662;28;1006;-59
2021/12/06 11:27:23;;;;;;;;;;;;;;;;;;4895605;29;869;-59
2021/12/06 11:29:52;;;;;;;;;;;;;;;;;;4895662;29;857;-60
2021/12/06 11:32:26;;;;;;;;;;;;;;;;;;4896076;29;917;-59
2021/12/06 11:34:56;;;;;;;;;;;;;;;;;;4895764;28;1066;-59
2021/12/06 11:37:22;;;;;;;;;;;;;;;;;;4895161;29;1928;-59
2021/12/06 11:39:49;;;;;;;;;;;;;;;;;;4895678;28;905;-59
2021/12/06 11:42:15;;;;;;;;;;;;;;;;;;4897479;28;759;-60
2021/12/06 11:44:42;;;;;;;;;;;;;;;;;;4897619;29;810;-62
2021/12/06 11:47:13;;;;;;;;;;;;;;;;;;4895009;28;885;-61
2021/12/06 11:49:40;;;;;;;;;;;;;;;;;;4894702;28;830;-59
2021/12/06 11:52:07;;;;;;;;;;;;;;;;;;4894707;28;835;-59
2021/12/06 11:54:43;;;;;;;;;;;;;;;;;;4894267;28;995;-59
2021/12/06 11:57:10;;;;;;;;;;;;;;;;;;4895415;28;1951;-60
2021/12/06 11:59:43;;;;;;;;;;;;;;;;;;4895038;28;744;-59
2021/12/06 12:02:08;;;;;;;;;;;;;;;;;;4894799;28;822;-59
2021/12/06 12:04:35;;;;;;;;;;;;;;;;;;4894347;28;846;-58
2021/12/06 12:07:02;;;;;;;;;;;;;;;;;;4908129;28;803;-59
2021/12/06 12:09:28;;;;;;;;;;;;;;;;;;4893501;28;1208;-59
2021/12/06 12:11:59;;;;;;;;;;;;;;;;;;4893160;28;869;-59
2021/12/06 12:14:25;;;;;;;;;;;;;;;;;;4892794;28;1166;-59
2021/12/06 12:16:51;;;;;;;;;;;;;;;;;;4891610;28;1962;-59
2021/12/06 12:19:16;;;;;;;;;;;;;;;;;;4892673;29;909;-59
2021/12/06 12:21:41;;;;;;;;;;;;;;;;;;4892928;28;940;-60
2021/12/06 12:24:07;;;;;;;;;;;;;;;;;;4892982;28;846;-59
2021/12/06 12:26:33;;;;;;;;;;;;;;;;;;4892904;29;814;-59
2021/12/06 12:29:01;;;;;;;;;;;;;;;;;;4893152;28;889;-59
2021/12/06 12:31:30;;;;;;;;;;;;;;;;;;4894528;28;834;-59
2021/12/06 12:33:56;;;;;;;;;;;;;;;;;;4896278;28;814;-59
2021/12/06 12:36:23;;;;;;;;;;;;;;;;;;4896120;28;1907;-59
2021/12/06 12:38:50;;;;;;;;;;;;;;;;;;4895882;28;898;-60
2021/12/06 12:41:17;;;;;;;;;;;;;;;;;;4895904;28;921;-60
2021/12/06 12:43:45;;;;;;;;;;;;;;;;;;4895644;29;790;-59
2021/12/06 12:46:13;;;;;;;;;;;;;;;;;;4895837;28;874;-59
2021/12/06 12:48:44;;;;;;;;;;;;;;;;;;4896340;28;1032;-60
2021/12/06 12:51:11;;;;;;;;;;;;;;;;;;4895932;28;1051;-60
2021/12/06 12:53:59;;;;;;;;;;;;;;;;;;4894585;28;1502;-59
2021/12/06 12:56:27;;;;;;;;;;;;;;;;;;4895501;28;1907;-59
2021/12/06 12:58:53;;;;;;;;;;;;;;;;;;4895386;28;984;-59
2021/12/06 13:01:22;;;;;;;;;;;;;;;;;;4895813;28;822;-60
2021/12/06 13:03:50;;;;;;;;;;;;;;;;;;4895217;28;874;-60
2021/12/06 13:06:15;;;;;;;;;;;;;;;;;;4895648;29;877;-60
2021/12/06 13:08:41;;;;;;;;;;;;;;;;;;4895414;29;1085;-60
2021/12/06 13:11:07;;;;;;;;;;;;;;;;;;4895138;28;862;-60
2021/12/06 13:13:42;;;;;;;;;;;;;;;;;;4895187;28;976;-60
2021/12/06 13:16:31;;;;;;;;;;;;;;;;;;4895154;28;1914;-59
2021/12/06 13:21:32;;;;;;;;;;;;;;;;;;4895510;29;716;-59
2021/12/06 13:24:05;;;;;;;;;;;;;;;;;;4895633;28;896;-59
2021/12/06 13:26:35;;;;;;;;;;;;;;;;;;4895813;29;860;-60
2021/12/06 13:29:03;;;;;;;;;;;;;;;;;;4895250;28;1061;-59
2021/12/06 13:31:28;;;;;;;;;;;;;;;;;;4895733;28;806;-59
2021/12/06 13:33:55;;;;;;;;;;;;;;;;;;4895103;28;811;-59
2021/12/06 13:36:40;;;;;;;;;;;;;;;;;;4895215;28;1899;-60
2021/12/06 13:39:25;;;;;;;;;;;;;;;;;;4895311;28;906;-60
2021/12/06 13:41:50;;;;;;;;;;;;;;;;;;4894711;28;1752;-59
2021/12/06 13:44:21;;;;;;;;;;;;;;;;;;4895115;28;1005;-59
2021/12/06 13:46:50;;;;;;;;;;;;;;;;;;4895230;28;857;-59
2021/12/06 13:49:17;;;;;;;;;;;;;;;;;;4895260;29;910;-59
2021/12/06 13:51:52;;;;;;;;;;;;;;;;;;4894835;28;891;-59
2021/12/06 13:54:28;;;;;;;;;;;;;;;;;;4895030;29;975;-59
2021/12/06 13:56:58;;;;;;;;;;;;;;;;;;4894969;28;1914;-59
2021/12/06 13:59:38;;;;;;;;;;;;;;;;;;4895168;29;898;-59
2021/12/06 14:02:06;;;;;;;;;;;;;;;;;;4894719;28;846;-59
2021/12/06 14:04:36;;;;;;;;;;;;;;;;;;4894558;28;979;-59
2021/12/06 14:07:02;;;;;;;;;;;;;;;;;;4894296;28;895;-60
2021/12/06 14:09:30;;;;;;;;;;;;;;;;;;4894835;29;1216;-59
2021/12/06 14:11:56;;;;;;;;;;;;;;;;;;4894808;29;827;-60
2021/12/06 14:14:24;;;;;;;;;;;;;;;;;;4894565;28;943;-59
2021/12/06 14:16:49;;;;;;;;;;;;;;;;;;4894155;29;1918;-59
2021/12/06 14:19:15;;;;;;;;;;;;;;;;;;4894295;28;907;-59
2021/12/06 14:21:43;;;;;;;;;;;;;;;;;;4894341;29;791;-59
2021/12/06 14:24:08;;;;;;;;;;;;;;;;;;4894642;28;830;-59
2021/12/06 14:26:41;;;;;;;;;;;;;;;;;;4894030;28;785;-59
2021/12/06 14:29:10;;;;;;;;;;;;;;;;;;4894967;28;838;-59
2021/12/06 14:31:38;;;;;;;;;;;;;;;;;;4893851;28;1245;-59
2021/12/06 14:34:03;;;;;;;;;;;;;;;;;;4894003;28;929;-59
2021/12/06 14:36:29;;;;;;;;;;;;;;;;;;4894103;29;1911;-59
2021/12/06 14:38:54;;;;;;;;;;;;;;;;;;4892981;29;1410;-59
2021/12/06 14:41:19;;;;;;;;;;;;;;;;;;4893005;29;944;-59
2021/12/06 14:43:44;;;;;;;;;;;;;;;;;;4892316;28;1016;-59
2021/12/06 14:46:10;;;;;;;;;;;;;;;;;;4893987;28;752;-59
2021/12/06 14:48:36;;;;;;;;;;;;;;;;;;4893826;29;936;-59
2021/12/06 14:51:08;;;;;;;;;;;;;;;;;;4893787;29;801;-59
2021/12/06 14:56:20;;;;;;;;;;;;;;;;;;4893956;28;1019;-59
2021/12/06 14:58:46;;;;;;;;;;;;;;;;;;4893857;29;918;-59
2021/12/06 15:01:13;;;;;;;;;;;;;;;;;;4893850;28;803;-59
2021/12/06 15:03:43;;;;;;;;;;;;;;;;;;4893579;29;880;-59
2021/12/06 15:06:08;;;;;;;;;;;;;;;;;;4893727;29;862;-59
2021/12/06 15:08:38;;;;;;;;;;;;;;;;;;4893680;28;1040;-59
2021/12/06 15:11:08;;;;;;;;;;;;;;;;;;4893810;28;854;-60
2021/12/06 15:13:35;;;;;;;;;;;;;;;;;;4894153;28;819;-59
2021/12/06 15:16:03;;;;;;;;;;;;;;;;;;4893999;28;830;-59
2021/12/06 15:18:30;;;;;;;;;;;;;;;;;;4893980;28;1919;-59
2021/12/06 15:20:56;;;;;;;;;;;;;;;;;;4893760;28;885;-59
2021/12/06 15:23:23;;;;;;;;;;;;;;;;;;4894015;29;1164;-59
2021/12/06 15:25:51;;;;;;;;;;;;;;;;;;4894298;28;1019;-59
2021/12/06 15:28:17;;;;;;;;;;;;;;;;;;4894509;29;834;-60
2021/12/06 15:30:42;;;;;;;;;;;;;;;;;;4893990;28;870;-59
2021/12/06 15:33:10;;;;;;;;;;;;;;;;;;4894091;28;957;-59
2021/12/06 15:35:40;;;;;;;;;;;;;;;;;;4893872;28;846;-60
2021/12/06 15:38:34;;;;;;;;;;;;;;;;;;4894033;28;1905;-59
2021/12/06 15:41:11;;;;;;;;;;;;;;;;;;4901079;28;1354;-59
2021/12/06 15:43:39;;;;;;;;;;;;;;;;;;4893522;28;862;-60
2021/12/06 15:46:04;;;;;;;;;;;;;;;;;;4893504;28;1028;-59
2021/12/06 15:48:31;;;;;;;;;;;;;;;;;;4893349;28;913;-59
2021/12/06 15:50:57;;;;;;;;;;;;;;;;;;4893067;28;798;-60
2021/12/06 15:53:23;;;;;;;;;;;;;;;;;;4893131;28;811;-59
2021/12/06 15:55:53;;;;;;;;;;;;;;;;;;4892708;28;925;-60
2021/12/06 15:58:20;;;;;;;;;;;;;;;;;;4892930;29;1903;-59
2021/12/06 16:00:56;;;;;;;;;;;;;;;;;;4893512;29;826;-59
2021/12/06 16:03:23;;;;;;;;;;;;;;;;;;4893430;28;783;-59
2021/12/06 16:05:48;;;;;;;;;;;;;;;;;;4895826;28;815;-60
2021/12/06 16:08:16;;;;;;;;;;;;;;;;;;4899702;28;900;-60
2021/12/06 16:10:44;;;;;;;;;;;;;;;;;;4899550;28;1084;-60
2021/12/06 16:13:11;;;;;;;;;;;;;;;;;;4899072;28;896;-59
2021/12/06 16:15:37;;;;;;;;;;;;;;;;;;4899185;28;845;-60
2021/12/06 16:18:10;;;;;;;;;;;;;;;;;;4899288;28;1976;-59
2021/12/06 16:20:39;;;;;;;;;;;;;;;;;;4899234;28;783;-60
2021/12/06 16:23:12;;;;;;;;;;;;;;;;;;4899298;28;893;-60
2021/12/06 16:25:48;;;;;;;;;;;;;;;;;;4899413;29;1016;-59
2021/12/06 16:28:14;;;;;;;;;;;;;;;;;;4899710;28;912;-60
2021/12/06 16:30:39;;;;;;;;;;;;;;;;;;4899247;28;1020;-60
2021/12/06 16:33:05;;;;;;;;;;;;;;;;;;4898759;28;932;-59
2021/12/06 16:35:31;;;;;;;;;;;;;;;;;;4899429;28;960;-60
2021/12/06 16:38:17;;;;;;;;;;;;;;;;;;4898696;28;2020;-59
2021/12/06 16:40:43;;;;;;;;;;;;;;;;;;4899308;29;810;-59
2021/12/06 16:43:09;;;;;;;;;;;;;;;;;;4916512;28;1129;-59
2021/12/06 16:45:34;;;;;;;;;;;;;;;;;;4902338;28;1126;-60
2021/12/06 16:48:01;;;;;;;;;;;;;;;;;;4898569;28;822;-59
2021/12/06 16:50:28;;;;;;;;;;;;;;;;;;4898677;28;936;-60
2021/12/06 16:52:55;;;;;;;;;;;;;;;;;;4898446;28;954;-60
2021/12/06 16:55:37;;;;;;;;;;;;;;;;;;4898614;29;968;-61
2021/12/06 16:58:09;;;;;;;;;;;;;;;;;;4898476;28;1916;-61
2021/12/06 17:00:37;;;;;;;;;;;;;;;;;;4899664;29;771;-61
2021/12/06 17:03:07;;;;;;;;;;;;;;;;;;4899323;28;1000;-61
2021/12/06 17:05:36;;;;;;;;;;;;;;;;;;4899151;28;885;-61
2021/12/06 17:08:06;;;;;;;;;;;;;;;;;;4899123;28;853;-61
2021/12/06 17:10:32;;;;;;;;;;;;;;;;;;4898225;29;1506;-61
2021/12/06 17:12:59;;;;;;;;;;;;;;;;;;4898722;29;830;-61
2021/12/06 17:15:24;;;;;;;;;;;;;;;;;;4898903;28;837;-61
2021/12/06 17:17:51;;;;;;;;;;;;;;;;;;4897093;29;1969;-59
2021/12/06 17:20:22;;;;;;;;;;;;;;;;;;4896675;28;763;-59
2021/12/06 17:22:48;;;;;;;;;;;;;;;;;;4895716;28;909;-59
2021/12/06 17:25:13;;;;;;;;;;;;;;;;;;4910547;28;1568;-59
2021/12/06 17:27:44;;;;;;;;;;;;;;;;;;4895865;29;826;-59
2021/12/06 17:30:10;;;;;;;;;;;;;;;;;;4895169;29;929;-61
2021/12/06 17:32:36;;;;;;;;;;;;;;;;;;4895686;28;814;-58
2021/12/06 17:35:01;;;;;;;;;;;;;;;;;;4895040;28;835;-61
2021/12/06 17:37:26;;;;;;;;;;;;;;;;;;4895881;28;1969;-61